Samus Swan — 9HA2333 — position and weather

sailwx.info

Track history (hours):
 
Tides and Currents Weather Stations Pressure Air Temp Water Temp Dewpoint Dewpoint Depression Visibility Wind Speed Wind Dir Waves Ship Positions

Samus Swan

Last reported at 2017-Feb-21 23:33 UTC. Time now 2017-Feb-22 08:27 UTC.
Position N 36°59' E 013°37'.

Length 106 m; draft 6 m.

Type: Ship (hazmat cat A). MMSI: 248363000.

Date/timePositionNaut miles runAvg speedWind from/ knotsBaromVisibWave heightAir tempDewpointWater temp
2017-Feb-21 23:33N 36°59' E 013°37'1111.0
2017-Feb-21 22:33N 36°54' E 013°50'1110.8
2017-Feb-21 21:33N 36°50' E 014°02'1110.5
2017-Feb-21 20:33N 36°46' E 014°14'1010.3
2017-Feb-21 19:33N 36°41' E 014°26'1010.0
2017-Feb-21 18:33N 36°38' E 014°37'  
2017-Feb-19 13:33N 37°33' E 015°53'1412.3
2017-Feb-19 12:26N 37°42' E 016°07'383 9.7
2017-Feb-17 21:07N 43°51' E 013°54'3412.2
2017-Feb-17 18:19N 44°11' E 013°15'912.1
2017-Feb-17 17:33N 44°19' E 013°11'1212.3
2017-Feb-17 16:33N 44°31' E 013°05'1312.5
2017-Feb-17 15:33N 44°43' E 012°60'1312.7
2017-Feb-17 14:33N 44°56' E 012°58'1212.5
2017-Feb-17 13:33N 45°07' E 012°51'1212.3
2017-Feb-17 12:33N 45°16' E 012°38'1110.7
2017-Feb-17 11:33N 45°18' E 012°24'8 8.1
2017-Feb-17 10:33N 45°24' E 012°16'3 2.5
2017-Feb-17 09:29N 45°26' E 012°13'0 0.0
2017-Feb-17 08:32N 45°26' E 012°13'0 0.0
2017-Feb-17 07:32N 45°26' E 012°13'0 0.0
2017-Feb-17 06:32N 45°26' E 012°13'0 0.0
2017-Feb-17 05:29N 45°26' E 012°13'0 0.0
2017-Feb-17 04:32N 45°26' E 012°13'0 0.0
2017-Feb-17 03:32N 45°26' E 012°13'0 0.0
2017-Feb-17 02:32N 45°26' E 012°13'0 0.0
2017-Feb-17 01:32N 45°26' E 012°13'0 0.0
2017-Feb-17 00:32N 45°26' E 012°13'0 0.0
2017-Feb-16 23:32N 45°26' E 012°13'0 0.0
2017-Feb-16 22:32N 45°26' E 012°13'0 0.0
2017-Feb-16 21:26N 45°26' E 012°13'0 0.0
2017-Feb-16 20:32N 45°26' E 012°13'0 0.0
2017-Feb-16 19:32N 45°26' E 012°13'0 0.0
2017-Feb-16 18:29N 45°26' E 012°13'0 0.0
2017-Feb-16 17:32N 45°26' E 012°13'0 0.0
2017-Feb-16 16:32N 45°26' E 012°13'0 0.0
2017-Feb-16 15:32N 45°26' E 012°13'0 0.0
2017-Feb-16 14:32N 45°26' E 012°13'0 0.0
2017-Feb-16 13:32N 45°26' E 012°13'0 0.0
2017-Feb-16 12:29N 45°26' E 012°13'0 0.0
2017-Feb-16 11:29N 45°26' E 012°13'0 0.0
2017-Feb-16 10:26N 45°26' E 012°13'0 0.0
2017-Feb-16 09:32N 45°26' E 012°13'0 0.0
2017-Feb-16 08:32N 45°26' E 012°13'0 0.0
2017-Feb-16 07:29N 45°26' E 012°13'0 0.2
2017-Feb-16 06:33N 45°26' E 012°13'5 4.9
2017-Feb-16 05:33N 45°22' E 012°15'6 6.4
2017-Feb-16 04:33N 45°20' E 012°24'0 0.2
2017-Feb-16 03:33N 45°20' E 012°24'0 0.0
2017-Feb-16 02:33N 45°20' E 012°24'0 0.0
2017-Feb-16 01:33N 45°20' E 012°24'0 0.0
2017-Feb-16 00:33N 45°20' E 012°24'0 0.0
2017-Feb-15 23:33N 45°20' E 012°24'0 0.0
2017-Feb-15 22:33N 45°20' E 012°24'0 0.0
2017-Feb-15 21:33N 45°20' E 012°24'0 0.0
2017-Feb-15 20:33N 45°20' E 012°24'0 0.1
2017-Feb-15 19:33N 45°20' E 012°24'5 5.0
2017-Feb-15 18:34N 45°17' E 012°30'1211.6
2017-Feb-15 17:34N 45°10' E 012°44'1111.3
2017-Feb-15 16:34N 45°01' E 012°53'1211.6
2017-Feb-15 15:33N 44°50' E 012°59'1211.3
2017-Feb-15 14:32N 44°40' E 013°04'1111.1
2017-Feb-15 13:34N 44°29' E 013°09'1111.0
2017-Feb-15 12:33N 44°19' E 013°14'1110.9
2017-Feb-15 11:31N 44°11' E 013°26'1111.0
2017-Feb-15 10:33N 44°05' E 013°38'1111.0
2017-Feb-15 09:31N 43°58' E 013°51'47311.2
2017-Feb-13 15:18N 37°53' E 020°29'  
Track history (hours):
 
Tides and Currents Weather Stations Pressure Air Temp Water Temp Dewpoint Dewpoint Depression Visibility Wind Speed Wind Dir Waves Ship Positions

Samus Swan

Last reported at 2017-Feb-21 23:33 UTC. Time now 2017-Feb-22 08:27 UTC.
Position N 36°59' E 013°37'.

Length 106 m; draft 6 m.

Type: Ship (hazmat cat A). MMSI: 248363000.

Date/timePositionNaut miles runAvg speedWind from/ knotsBaromVisibWave heightAir tempDewpointWater temp
2017-Feb-21 23:33N 36°59' E 013°37'1111.0
2017-Feb-21 22:33N 36°54' E 013°50'1110.8
2017-Feb-21 21:33N 36°50' E 014°02'1110.5
2017-Feb-21 20:33N 36°46' E 014°14'1010.3
2017-Feb-21 19:33N 36°41' E 014°26'1010.0
2017-Feb-21 18:33N 36°38' E 014°37'  
2017-Feb-19 13:33N 37°33' E 015°53'1412.3
2017-Feb-19 12:26N 37°42' E 016°07'383 9.7
2017-Feb-17 21:07N 43°51' E 013°54'3412.2
2017-Feb-17 18:19N 44°11' E 013°15'912.1
2017-Feb-17 17:33N 44°19' E 013°11'1212.3
2017-Feb-17 16:33N 44°31' E 013°05'1312.5
2017-Feb-17 15:33N 44°43' E 012°60'1312.7
2017-Feb-17 14:33N 44°56' E 012°58'1212.5
2017-Feb-17 13:33N 45°07' E 012°51'1212.3
2017-Feb-17 12:33N 45°16' E 012°38'1110.7
2017-Feb-17 11:33N 45°18' E 012°24'8 8.1
2017-Feb-17 10:33N 45°24' E 012°16'3 2.5
2017-Feb-17 09:29N 45°26' E 012°13'0 0.0
2017-Feb-17 08:32N 45°26' E 012°13'0 0.0
2017-Feb-17 07:32N 45°26' E 012°13'0 0.0
2017-Feb-17 06:32N 45°26' E 012°13'0 0.0
2017-Feb-17 05:29N 45°26' E 012°13'0 0.0
2017-Feb-17 04:32N 45°26' E 012°13'0 0.0
2017-Feb-17 03:32N 45°26' E 012°13'0 0.0
2017-Feb-17 02:32N 45°26' E 012°13'0 0.0
2017-Feb-17 01:32N 45°26' E 012°13'0 0.0
2017-Feb-17 00:32N 45°26' E 012°13'0 0.0
2017-Feb-16 23:32N 45°26' E 012°13'0 0.0
2017-Feb-16 22:32N 45°26' E 012°13'0 0.0
2017-Feb-16 21:26N 45°26' E 012°13'0 0.0
2017-Feb-16 20:32N 45°26' E 012°13'0 0.0
2017-Feb-16 19:32N 45°26' E 012°13'0 0.0
2017-Feb-16 18:29N 45°26' E 012°13'0 0.0
2017-Feb-16 17:32N 45°26' E 012°13'0 0.0
2017-Feb-16 16:32N 45°26' E 012°13'0 0.0
2017-Feb-16 15:32N 45°26' E 012°13'0 0.0
2017-Feb-16 14:32N 45°26' E 012°13'0 0.0
2017-Feb-16 13:32N 45°26' E 012°13'0 0.0
2017-Feb-16 12:29N 45°26' E 012°13'0 0.0
2017-Feb-16 11:29N 45°26' E 012°13'0 0.0
2017-Feb-16 10:26N 45°26' E 012°13'0 0.0
2017-Feb-16 09:32N 45°26' E 012°13'0 0.0
2017-Feb-16 08:32N 45°26' E 012°13'0 0.0
2017-Feb-16 07:29N 45°26' E 012°13'0 0.2
2017-Feb-16 06:33N 45°26' E 012°13'5 4.9
2017-Feb-16 05:33N 45°22' E 012°15'6 6.4
2017-Feb-16 04:33N 45°20' E 012°24'0 0.2
2017-Feb-16 03:33N 45°20' E 012°24'0 0.0
2017-Feb-16 02:33N 45°20' E 012°24'0 0.0
2017-Feb-16 01:33N 45°20' E 012°24'0 0.0
2017-Feb-16 00:33N 45°20' E 012°24'0 0.0
2017-Feb-15 23:33N 45°20' E 012°24'0 0.0
2017-Feb-15 22:33N 45°20' E 012°24'0 0.0
2017-Feb-15 21:33N 45°20' E 012°24'0 0.0
2017-Feb-15 20:33N 45°20' E 012°24'0 0.1
2017-Feb-15 19:33N 45°20' E 012°24'5 5.0
2017-Feb-15 18:34N 45°17' E 012°30'1211.6
2017-Feb-15 17:34N 45°10' E 012°44'1111.3
2017-Feb-15 16:34N 45°01' E 012°53'1211.6
2017-Feb-15 15:33N 44°50' E 012°59'1211.3
2017-Feb-15 14:32N 44°40' E 013°04'1111.1
2017-Feb-15 13:34N 44°29' E 013°09'1111.0
2017-Feb-15 12:33N 44°19' E 013°14'1110.9
2017-Feb-15 11:31N 44°11' E 013°26'1111.0
2017-Feb-15 10:33N 44°05' E 013°38'1111.0
2017-Feb-15 09:31N 43°58' E 013°51'47311.2
2017-Feb-13 15:18N 37°53' E 020°29'  

Dump ship's entire track history